Time;durP1;ratioP1;P1;durP2;ratioP2;P2;SDS_P1;SDS_P2;PMS_P1;PMS_P2;Temp;Humidity;BMP_temperature;BMP_pressure;BME280_temperature;BME280_humidity;BME280_pressure;Samples;Min_cycle;Max_cycle;Signal;HPM_P1;HPM_P2
2023/09/29 00:00:31;;;;;;;14.80;5.60;;;14.90;99.90;;;;;;5032947;28;20118;-67
2023/09/29 00:02:57;;;;;;;18.50;5.70;;;14.90;99.90;;;;;;5056143;28;20250;-66
2023/09/29 00:05:23;;;;;;;20.88;5.55;;;14.90;99.90;;;;;;5056865;28;20049;-67
2023/09/29 00:07:51;;;;;;;15.27;5.45;;;14.80;99.90;;;;;;5047625;28;20041;-66
2023/09/29 00:10:17;;;;;;;15.95;5.40;;;14.80;99.90;;;;;;5043519;28;20081;-66
2023/09/29 00:12:44;;;;;;;20.77;6.22;;;14.80;99.90;;;;;;5047740;28;20037;-66
2023/09/29 00:15:10;;;;;;;13.18;5.60;;;14.80;99.90;;;;;;5047636;28;20056;-67
2023/09/29 00:17:36;;;;;;;16.45;5.63;;;14.80;99.90;;;;;;5044786;28;20055;-67
2023/09/29 00:22:47;;;;;;;19.27;5.82;;;14.80;99.90;;;;;;5043100;28;20045;-67
2023/09/29 00:25:13;;;;;;;18.92;6.50;;;14.80;99.90;;;;;;5051256;28;20043;-67
2023/09/29 00:27:39;;;;;;;17.35;5.85;;;14.80;99.90;;;;;;5064615;28;20148;-67
2023/09/29 00:30:06;;;;;;;17.92;6.05;;;14.80;99.90;;;;;;5054788;28;20393;-67
2023/09/29 00:32:31;;;;;;;18.02;6.20;;;14.80;99.90;;;;;;5046637;28;20048;-66
2023/09/29 00:34:58;;;;;;;16.70;6.35;;;14.80;99.90;;;;;;5047267;28;20457;-66
2023/09/29 00:37:25;;;;;;;18.58;6.03;;;14.90;99.90;;;;;;5045271;28;20465;-67
2023/09/29 00:39:52;;;;;;;22.90;6.50;;;14.90;99.90;;;;;;5042610;28;20093;-67
2023/09/29 00:42:18;;;;;;;20.05;6.55;;;14.90;99.90;;;;;;5030039;28;20069;-67
2023/09/29 00:44:44;;;;;;;16.27;6.03;;;15.00;99.90;;;;;;5049178;28;20385;-66
2023/09/29 00:47:11;;;;;;;20.08;6.50;;;15.00;99.90;;;;;;5053773;28;20128;-67
2023/09/29 00:49:37;;;;;;;18.58;7.00;;;15.00;99.90;;;;;;5044341;28;20029;-67
2023/09/29 00:52:03;;;;;;;20.95;7.40;;;15.10;99.90;;;;;;5045051;28;20036;-67
2023/09/29 00:54:31;;;;;;;15.27;6.47;;;15.10;99.90;;;;;;5047623;28;20115;-67
2023/09/29 00:57:00;;;;;;;16.35;6.07;;;15.10;99.90;;;;;;5044716;28;20100;-67
2023/09/29 00:59:27;;;;;;;18.90;6.72;;;15.20;99.90;;;;;;5042806;28;20167;-67
2023/09/29 01:01:52;;;;;;;18.10;6.47;;;15.20;99.90;;;;;;5043995;28;20339;-66
2023/09/29 01:04:18;;;;;;;23.83;6.70;;;15.30;99.90;;;;;;5047045;28;20230;-67
2023/09/29 01:06:45;;;;;;;15.30;6.57;;;15.30;99.90;;;;;;5046944;28;20036;-66
2023/09/29 01:09:11;;;;;;;19.30;7.10;;;15.30;99.90;;;;;;5046364;28;20064;-67
2023/09/29 01:11:43;;;;;;;14.68;6.13;;;15.30;99.90;;;;;;5047961;28;20524;-67
2023/09/29 01:14:12;;;;;;;17.25;6.32;;;15.30;99.90;;;;;;5054303;28;20132;-66
2023/09/29 01:16:40;;;;;;;17.58;6.50;;;15.20;99.90;;;;;;5049797;28;20108;-66
2023/09/29 01:19:13;;;;;;;13.65;5.97;;;15.20;99.90;;;;;;5049692;28;20036;-67
2023/09/29 01:21:45;;;;;;;20.27;6.85;;;15.20;99.90;;;;;;5025421;28;20033;-66
2023/09/29 01:24:11;;;;;;;16.65;6.32;;;15.20;99.90;;;;;;5024243;28;20059;-66
2023/09/29 01:26:37;;;;;;;15.85;6.38;;;15.20;99.90;;;;;;5049957;28;20036;-66
2023/09/29 01:29:03;;;;;;;16.70;6.82;;;15.10;99.90;;;;;;5048997;28;20123;-67
2023/09/29 01:31:34;;;;;;;12.13;5.50;;;15.10;99.90;;;;;;5048873;28;20040;-66
2023/09/29 01:34:04;;;;;;;17.88;6.65;;;15.20;99.90;;;;;;5057655;28;20041;-67
2023/09/29 01:36:34;;;;;;;17.25;6.03;;;15.20;99.90;;;;;;5033247;28;20047;-68
2023/09/29 01:39:00;;;;;;;15.93;5.65;;;15.10;99.90;;;;;;5046050;28;20045;-67
2023/09/29 01:41:26;;;;;;;18.38;6.45;;;15.20;99.90;;;;;;5030352;28;20041;-66
2023/09/29 01:43:52;;;;;;;12.65;5.97;;;15.20;99.90;;;;;;5049879;28;20029;-66
2023/09/29 01:46:18;;;;;;;18.42;6.28;;;15.20;99.90;;;;;;5057759;28;20361;-67
2023/09/29 01:48:43;;;;;;;14.05;5.90;;;15.30;99.90;;;;;;5041726;28;20044;-67
2023/09/29 01:51:09;;;;;;;14.98;5.40;;;15.20;99.90;;;;;;5043143;28;20129;-66
2023/09/29 01:53:35;;;;;;;13.80;5.80;;;15.20;99.90;;;;;;5043055;28;20499;-67
2023/09/29 01:56:02;;;;;;;12.50;5.55;;;15.30;99.90;;;;;;5044831;28;20277;-67
2023/09/29 01:58:27;;;;;;;11.68;5.38;;;15.30;99.90;;;;;;5029378;28;20362;-67
2023/09/29 02:00:54;;;;;;;15.13;6.68;;;15.30;99.90;;;;;;5052453;28;20039;-67
2023/09/29 02:03:20;;;;;;;18.15;5.47;;;15.30;99.90;;;;;;5049794;28;20096;-67
2023/09/29 02:05:46;;;;;;;15.15;5.32;;;15.40;99.90;;;;;;5042140;28;20154;-67
2023/09/29 02:08:11;;;;;;;17.48;6.28;;;15.40;99.90;;;;;;5034150;28;20510;-67
2023/09/29 02:10:37;;;;;;;18.13;6.07;;;15.40;99.90;;;;;;5044300;28;20045;-67
2023/09/29 02:13:07;;;;;;;22.77;5.78;;;15.40;99.90;;;;;;5052113;28;20040;-67
2023/09/29 02:15:35;;;;;;;12.55;5.45;;;15.40;99.90;;;;;;5053782;28;20118;-67
2023/09/29 02:18:09;;;;;;;14.25;5.32;;;15.50;99.90;;;;;;5045640;28;20044;-67
2023/09/29 02:20:36;;;;;;;14.80;5.43;;;15.50;99.90;;;;;;5051653;28;20147;-67
2023/09/29 02:23:02;;;;;;;13.80;4.80;;;15.50;99.90;;;;;;5045429;28;20052;-66
2023/09/29 02:25:29;;;;;;;13.90;5.82;;;15.50;99.90;;;;;;5043615;28;20037;-66
2023/09/29 02:27:56;;;;;;;16.77;5.00;;;15.50;99.90;;;;;;5041674;28;20040;-67
2023/09/29 02:30:24;;;;;;;16.10;5.38;;;15.50;99.90;;;;;;5044034;28;20113;-66
2023/09/29 02:32:52;;;;;;;17.77;4.75;;;15.50;99.90;;;;;;5048597;28;20520;-67
2023/09/29 02:35:18;;;;;;;15.55;5.32;;;15.50;99.90;;;;;;5039377;28;20075;-67
2023/09/29 02:37:44;;;;;;;14.10;5.20;;;15.60;99.90;;;;;;5054055;28;20032;-67
2023/09/29 02:40:14;;;;;;;13.57;5.82;;;15.60;99.90;;;;;;5052391;28;20592;-66
2023/09/29 02:42:42;;;;;;;14.82;4.82;;;15.60;99.90;;;;;;5049562;28;20044;-67
2023/09/29 02:45:08;;;;;;;13.35;4.93;;;15.60;99.90;;;;;;5048520;28;20102;-66
2023/09/29 02:47:39;;;;;;;17.38;5.20;;;15.60;99.90;;;;;;5046219;28;20186;-66
2023/09/29 02:50:07;;;;;;;11.45;5.05;;;15.60;99.90;;;;;;5044573;28;20048;-66
2023/09/29 02:52:32;;;;;;;13.82;4.70;;;15.60;99.90;;;;;;5059651;28;20048;-67
2023/09/29 02:54:59;;;;;;;15.52;5.28;;;15.70;99.90;;;;;;5062946;28;20044;-67
2023/09/29 02:57:24;;;;;;;12.32;4.95;;;15.70;99.90;;;;;;5049168;28;20453;-67
2023/09/29 02:59:50;;;;;;;16.02;5.53;;;15.60;99.90;;;;;;5031825;28;20052;-67
2023/09/29 03:02:16;;;;;;;11.77;4.75;;;15.70;99.90;;;;;;5049754;28;20200;-67
2023/09/29 03:04:43;;;;;;;17.60;5.68;;;15.60;99.90;;;;;;5047480;28;20128;-67
2023/09/29 03:07:13;;;;;;;14.25;5.40;;;15.70;99.90;;;;;;5054293;28;20469;-67
2023/09/29 03:09:38;;;;;;;21.97;6.17;;;15.70;99.90;;;;;;5047550;28;21968;-66
2023/09/29 03:12:04;;;;;;;11.90;4.82;;;15.60;99.90;;;;;;5068708;28;20056;-67
2023/09/29 03:14:30;;;;;;;15.68;5.10;;;15.70;99.90;;;;;;5055203;28;20047;-67
2023/09/29 03:16:58;;;;;;;14.80;5.85;;;15.60;99.90;;;;;;5062716;28;20476;-67
2023/09/29 03:19:24;;;;;;;12.13;5.18;;;15.60;99.90;;;;;;5055273;28;20422;-68
2023/09/29 03:21:50;;;;;;;18.45;5.43;;;15.60;99.90;;;;;;5050732;28;20042;-67
2023/09/29 03:24:15;;;;;;;15.00;5.93;;;15.60;99.90;;;;;;5052720;28;20113;-67
2023/09/29 03:26:41;;;;;;;17.63;6.15;;;15.60;99.90;;;;;;5052700;28;20590;-67
2023/09/29 03:29:07;;;;;;;16.95;6.47;;;15.70;99.90;;;;;;5052487;28;20048;-67
2023/09/29 03:31:32;;;;;;;21.67;6.05;;;15.70;99.90;;;;;;5052005;28;20028;-67
2023/09/29 03:33:58;;;;;;;14.07;5.88;;;15.70;99.90;;;;;;5054789;28;20028;-67
2023/09/29 03:36:23;;;;;;;15.70;6.55;;;15.70;99.90;;;;;;5042001;28;20040;-67
2023/09/29 03:38:49;;;;;;;17.67;6.40;;;15.60;99.90;;;;;;5052645;28;20041;-67
2023/09/29 03:41:15;;;;;;;11.30;5.63;;;15.70;99.90;;;;;;5047258;28;20041;-67
2023/09/29 03:43:41;;;;;;;19.02;6.18;;;15.70;99.90;;;;;;5048630;28;20037;-66
2023/09/29 03:46:19;;;;;;;13.63;6.47;;;15.70;99.90;;;;;;5051977;28;20041;-67
2023/09/29 03:48:47;;;;;;;13.50;6.28;;;15.70;99.90;;;;;;5057436;28;20123;-67
2023/09/29 03:51:21;;;;;;;11.90;6.30;;;15.70;99.90;;;;;;5044414;28;20033;-67
2023/09/29 03:53:47;;;;;;;15.57;6.35;;;15.70;99.90;;;;;;5046993;28;20047;-67
2023/09/29 03:56:13;;;;;;;12.55;6.38;;;15.70;99.90;;;;;;5043493;28;20712;-67
2023/09/29 03:58:38;;;;;;;17.48;6.80;;;15.70;99.90;;;;;;5048624;28;20041;-67
2023/09/29 04:01:04;;;;;;;14.40;6.28;;;15.60;99.90;;;;;;5049356;28;20041;-67
2023/09/29 04:03:29;;;;;;;18.88;6.32;;;15.70;99.90;;;;;;5029827;28;20107;-66
2023/09/29 04:05:55;;;;;;;13.85;7.60;;;15.60;99.90;;;;;;5044460;28;20147;-67
2023/09/29 04:08:20;;;;;;;14.82;6.70;;;15.70;99.90;;;;;;5043910;28;20070;-67
2023/09/29 04:10:46;;;;;;;17.48;6.63;;;15.70;99.90;;;;;;5036216;28;20048;-67
2023/09/29 04:13:11;;;;;;;19.08;7.30;;;15.70;99.90;;;;;;5050397;28;20040;-67
2023/09/29 04:15:37;;;;;;;18.60;7.63;;;15.80;99.90;;;;;;5046968;28;20435;-68
2023/09/29 04:18:03;;;;;;;20.35;7.15;;;15.80;99.90;;;;;;5050200;28;20095;-67
2023/09/29 04:20:28;;;;;;;13.73;6.85;;;15.90;99.90;;;;;;5045726;28;20045;-67
2023/09/29 04:22:54;;;;;;;18.40;7.95;;;15.90;99.90;;;;;;5051027;28;20043;-67
2023/09/29 04:25:20;;;;;;;14.80;7.35;;;16.00;99.90;;;;;;5041691;28;20074;-67
2023/09/29 04:27:45;;;;;;;18.27;8.10;;;16.00;99.90;;;;;;5049722;28;20163;-67
2023/09/29 04:30:12;;;;;;;19.38;8.77;;;16.00;99.90;;;;;;5044782;28;20037;-67
2023/09/29 04:32:38;;;;;;;21.00;8.00;;;16.00;99.90;;;;;;5055439;28;20787;-68
2023/09/29 04:35:05;;;;;;;18.10;8.25;;;16.00;99.90;;;;;;5059556;28;20144;-67
2023/09/29 04:37:31;;;;;;;23.58;8.90;;;16.00;99.90;;;;;;5048067;28;20534;-67
2023/09/29 04:39:57;;;;;;;17.05;8.90;;;16.10;99.90;;;;;;5047708;28;20029;-68
2023/09/29 04:42:24;;;;;;;16.98;8.55;;;16.10;99.90;;;;;;5048506;28;20044;-67
2023/09/29 04:44:49;;;;;;;20.13;8.80;;;16.10;99.90;;;;;;5042729;28;20051;-68
2023/09/29 04:47:15;;;;;;;18.90;9.05;;;16.10;99.90;;;;;;5063123;28;20037;-67
2023/09/29 04:49:41;;;;;;;20.38;8.63;;;16.20;99.90;;;;;;5057373;28;20040;-67
2023/09/29 04:52:07;;;;;;;20.13;9.27;;;16.20;99.90;;;;;;5033075;28;20064;-67
2023/09/29 04:54:33;;;;;;;25.80;9.73;;;16.20;99.90;;;;;;5044110;28;20495;-68
2023/09/29 04:56:59;;;;;;;15.80;8.02;;;16.20;99.90;;;;;;5048482;28;20102;-67
2023/09/29 04:59:25;;;;;;;15.82;9.00;;;16.20;99.90;;;;;;5056879;28;20082;-68
2023/09/29 05:01:51;;;;;;;18.98;8.77;;;16.30;99.90;;;;;;5044186;28;20129;-67
2023/09/29 05:04:16;;;;;;;23.13;10.02;;;16.30;99.90;;;;;;5031113;28;20195;-68
2023/09/29 05:06:43;;;;;;;19.65;8.82;;;16.30;99.90;;;;;;5028607;28;20567;-68
2023/09/29 05:09:11;;;;;;;22.45;9.85;;;16.30;99.90;;;;;;5048675;28;20046;-69
2023/09/29 05:11:37;;;;;;;19.00;8.63;;;16.40;99.90;;;;;;5047808;28;20358;-67
2023/09/29 05:14:02;;;;;;;18.15;8.77;;;16.40;99.90;;;;;;5053156;28;20037;-67
2023/09/29 05:16:28;;;;;;;20.88;9.82;;;16.40;99.90;;;;;;5033937;28;20392;-67
2023/09/29 05:18:54;;;;;;;16.88;8.75;;;16.40;99.90;;;;;;5031609;28;20037;-68
2023/09/29 05:21:20;;;;;;;18.48;8.90;;;16.40;99.90;;;;;;5039357;28;20504;-67
2023/09/29 05:23:46;;;;;;;17.63;8.93;;;16.40;99.90;;;;;;5063331;28;20123;-68
2023/09/29 05:26:12;;;;;;;21.98;10.02;;;16.40;99.90;;;;;;5066849;28;20044;-67
2023/09/29 05:28:38;;;;;;;21.00;8.15;;;16.40;99.90;;;;;;5044245;28;20040;-68
2023/09/29 05:31:03;;;;;;;19.02;8.68;;;16.50;99.90;;;;;;5048516;28;20600;-68
2023/09/29 05:33:30;;;;;;;14.15;8.63;;;16.50;99.90;;;;;;5049865;28;20043;-68
2023/09/29 05:35:55;;;;;;;17.67;7.90;;;16.50;99.90;;;;;;5025842;28;20036;-67
2023/09/29 05:38:21;;;;;;;18.30;8.77;;;16.50;99.90;;;;;;5043042;28;20041;-68
2023/09/29 05:40:47;;;;;;;16.17;8.32;;;16.50;99.90;;;;;;5047265;28;20132;-67
2023/09/29 05:43:13;;;;;;;16.77;7.95;;;16.50;99.90;;;;;;5042153;28;20398;-69
2023/09/29 05:45:39;;;;;;;19.98;8.13;;;16.50;99.90;;;;;;5043893;28;20040;-68
2023/09/29 05:48:06;;;;;;;17.70;7.70;;;16.40;99.90;;;;;;5044294;28;20041;-68
2023/09/29 05:50:31;;;;;;;19.05;8.35;;;16.30;99.90;;;;;;5042710;28;20102;-68
2023/09/29 05:52:57;;;;;;;20.30;8.20;;;16.30;99.90;;;;;;5044933;28;20497;-67
2023/09/29 05:55:23;;;;;;;24.75;7.85;;;16.10;99.90;;;;;;5046721;28;20033;-68
2023/09/29 05:57:50;;;;;;;15.40;7.18;;;15.90;99.90;;;;;;5040653;28;20029;-69
2023/09/29 06:00:16;;;;;;;15.52;7.82;;;15.90;99.90;;;;;;5039817;28;20045;-67
2023/09/29 06:02:42;;;;;;;14.23;8.13;;;15.80;99.90;;;;;;5025223;28;20095;-68
2023/09/29 06:05:08;;;;;;;15.13;7.15;;;15.80;99.90;;;;;;5025749;28;20049;-69
2023/09/29 06:07:34;;;;;;;16.50;7.30;;;15.70;99.90;;;;;;5044588;28;20162;-68
2023/09/29 06:10:00;;;;;;;13.60;6.85;;;15.70;99.90;;;;;;5047037;28;20060;-68
2023/09/29 06:12:25;;;;;;;19.65;7.50;;;15.70;99.90;;;;;;5045771;28;20033;-70
2023/09/29 06:14:51;;;;;;;17.80;7.50;;;15.70;99.90;;;;;;5043765;28;20052;-68
2023/09/29 06:17:17;;;;;;;12.43;6.72;;;15.70;99.90;;;;;;5048672;28;20052;-69
2023/09/29 06:19:42;;;;;;;14.48;6.75;;;15.80;99.90;;;;;;5045773;28;20037;-68
2023/09/29 06:22:08;;;;;;;13.43;6.47;;;15.70;99.90;;;;;;5043436;28;20831;-69
2023/09/29 06:24:33;;;;;;;15.77;6.65;;;15.80;99.90;;;;;;5044264;28;20116;-69
2023/09/29 06:26:59;;;;;;;16.80;7.43;;;15.80;99.90;;;;;;5042275;28;20161;-68
2023/09/29 06:29:24;;;;;;;14.30;6.75;;;15.80;99.90;;;;;;5044720;28;20038;-68
2023/09/29 06:31:50;;;;;;;14.23;6.88;;;15.90;99.90;;;;;;5047630;28;20057;-69
2023/09/29 06:34:16;;;;;;;15.68;7.13;;;15.90;99.90;;;;;;5044916;28;20527;-68
2023/09/29 06:36:42;;;;;;;14.57;6.40;;;15.90;99.90;;;;;;5039493;28;20045;-68
2023/09/29 06:39:08;;;;;;;15.25;6.28;;;15.90;99.90;;;;;;5046682;28;20040;-68
2023/09/29 06:41:34;;;;;;;15.57;6.78;;;16.10;99.90;;;;;;5027678;28;20048;-69
2023/09/29 06:43:59;;;;;;;12.93;6.55;;;16.10;99.90;;;;;;5038246;28;20389;-70
2023/09/29 06:46:25;;;;;;;11.02;5.38;;;16.10;99.90;;;;;;5035493;28;20652;-68
2023/09/29 06:48:52;;;;;;;9.40;5.88;;;16.10;99.90;;;;;;5039476;28;20037;-69
2023/09/29 06:51:18;;;;;;;12.05;6.15;;;16.20;99.90;;;;;;5042450;28;20060;-68
2023/09/29 06:53:43;;;;;;;10.50;5.35;;;16.10;99.90;;;;;;5042028;28;20037;-68
2023/09/29 06:56:09;;;;;;;8.05;4.82;;;16.20;99.90;;;;;;5041858;28;20450;-68
2023/09/29 06:58:34;;;;;;;10.10;5.15;;;16.20;99.90;;;;;;5045818;28;20120;-68
2023/09/29 07:01:01;;;;;;;16.10;6.18;;;16.20;99.90;;;;;;5043158;28;20040;-68
2023/09/29 07:03:29;;;;;;;11.57;5.22;;;16.30;99.90;;;;;;5044450;28;20061;-69
2023/09/29 07:05:57;;;;;;;8.52;4.82;;;16.30;99.90;;;;;;5036277;28;20353;-68
2023/09/29 07:08:23;;;;;;;8.35;5.13;;;16.40;99.90;;;;;;5039852;28;20069;-67
2023/09/29 07:10:49;;;;;;;10.25;5.00;;;16.40;99.90;;;;;;5044811;28;20064;-68
2023/09/29 07:13:15;;;;;;;8.07;4.43;;;16.50;99.90;;;;;;5024067;28;20441;-68
2023/09/29 07:15:41;;;;;;;9.38;4.50;;;16.60;99.90;;;;;;5043857;28;20047;-69
2023/09/29 07:18:10;;;;;;;7.72;4.47;;;16.70;99.90;;;;;;5045139;28;20048;-70
2023/09/29 07:20:37;;;;;;;7.07;4.40;;;16.80;99.90;;;;;;5043552;28;20053;-69
2023/09/29 07:23:03;;;;;;;8.05;4.40;;;16.80;99.90;;;;;;5040414;28;20053;-68
2023/09/29 07:25:29;;;;;;;9.90;4.38;;;16.90;99.90;;;;;;5042915;28;20037;-68
2023/09/29 07:27:55;;;;;;;14.38;4.97;;;17.00;99.90;;;;;;5046336;28;20542;-68
2023/09/29 07:30:20;;;;;;;9.02;4.72;;;17.10;99.90;;;;;;5046494;28;20099;-69
2023/09/29 07:32:46;;;;;;;10.75;4.38;;;17.20;99.90;;;;;;5045872;28;20108;-69
2023/09/29 07:35:12;;;;;;;12.50;4.78;;;17.20;99.90;;;;;;5042928;28;20036;-71
2023/09/29 07:37:38;;;;;;;7.47;4.13;;;17.30;99.90;;;;;;5040903;28;20114;-69
2023/09/29 07:40:06;;;;;;;9.00;4.05;;;17.30;99.90;;;;;;5042952;28;20065;-68
2023/09/29 07:42:32;;;;;;;9.25;5.10;;;17.50;99.90;;;;;;5046464;28;20110;-68
2023/09/29 07:44:58;;;;;;;7.45;4.65;;;17.50;99.90;;;;;;5046457;28;20037;-69
2023/09/29 07:47:23;;;;;;;12.07;4.00;;;17.60;99.90;;;;;;5050307;28;20037;-68
2023/09/29 07:49:49;;;;;;;11.48;4.53;;;17.60;99.90;;;;;;5047815;28;20041;-68
2023/09/29 07:52:15;;;;;;;6.18;3.80;;;17.60;99.90;;;;;;5033355;28;20123;-68
2023/09/29 07:54:40;;;;;;;10.20;3.92;;;17.60;99.90;;;;;;5046867;28;20487;-68
2023/09/29 07:57:06;;;;;;;8.05;3.80;;;17.70;99.90;;;;;;5034164;28;20125;-68
2023/09/29 07:59:32;;;;;;;7.72;3.78;;;17.70;99.90;;;;;;5049587;28;20043;-69
2023/09/29 08:01:58;;;;;;;10.93;3.95;;;17.80;99.90;;;;;;5046319;28;20124;-69
2023/09/29 08:04:25;;;;;;;9.43;4.00;;;17.90;99.90;;;;;;5048732;28;20434;-70
2023/09/29 08:06:50;;;;;;;8.07;4.22;;;18.10;99.90;;;;;;5043962;28;20409;-67
2023/09/29 08:09:16;;;;;;;7.45;3.65;;;18.30;99.90;;;;;;5046948;28;20115;-68
2023/09/29 08:11:42;;;;;;;7.88;3.70;;;18.50;99.90;;;;;;5049543;28;20040;-68
2023/09/29 08:14:08;;;;;;;7.93;3.95;;;18.50;99.90;;;;;;5048702;28;20056;-69
2023/09/29 08:16:34;;;;;;;5.53;3.47;;;18.60;99.90;;;;;;5047227;28;20409;-67
2023/09/29 08:19:00;;;;;;;6.55;3.28;;;18.70;99.90;;;;;;5041366;28;20041;-69
2023/09/29 08:21:26;;;;;;;7.90;3.33;;;18.70;99.90;;;;;;5054751;28;20142;-68
2023/09/29 08:23:52;;;;;;;6.70;3.25;;;18.70;99.90;;;;;;5033241;28;20211;-68
2023/09/29 08:26:17;;;;;;;8.00;3.30;;;18.70;99.90;;;;;;5025680;28;20063;-69
2023/09/29 08:28:43;;;;;;;4.72;3.65;;;18.80;99.90;;;;;;5056109;28;20037;-68
2023/09/29 08:31:16;;;;;;;9.40;3.30;;;18.90;99.90;;;;;;5041009;28;20109;-68
2023/09/29 08:33:43;;;;;;;8.65;3.13;;;19.00;99.90;;;;;;5036839;28;20029;-68
2023/09/29 08:36:09;;;;;;;9.93;3.40;;;19.20;99.90;;;;;;5046625;28;20488;-68
2023/09/29 08:38:35;;;;;;;7.70;4.07;;;19.40;99.90;;;;;;5045947;28;20037;-71
2023/09/29 08:41:05;;;;;;;4.45;2.60;;;19.60;99.90;;;;;;5046597;28;20045;-70
2023/09/29 08:43:32;;;;;;;;;;;19.60;99.90;;;;;;5046199;28;20389;-69
2023/09/29 08:45:59;;;;;;;5.50;3.17;;;19.60;99.90;;;;;;5030073;28;20423;-68
2023/09/29 08:48:29;;;;;;;6.90;3.00;;;19.70;99.90;;;;;;5044552;28;20036;-69
2023/09/29 08:50:57;;;;;;;7.13;3.25;;;19.70;99.90;;;;;;5050875;28;20068;-69
2023/09/29 08:53:26;;;;;;;5.57;3.20;;;19.80;99.90;;;;;;5031496;28;20041;-69
2023/09/29 08:55:56;;;;;;;5.70;3.03;;;19.90;99.90;;;;;;5037268;28;20048;-68
2023/09/29 08:58:27;;;;;;;5.68;3.00;;;20.00;99.90;;;;;;5041130;28;20147;-68
2023/09/29 09:00:53;;;;;;;6.13;3.20;;;20.20;99.90;;;;;;5042066;28;20072;-68
2023/09/29 09:03:19;;;;;;;6.22;2.85;;;20.20;99.90;;;;;;5044326;28;20445;-68
2023/09/29 09:05:45;;;;;;;4.85;2.80;;;20.30;99.90;;;;;;5040992;28;20056;-69
2023/09/29 09:08:11;;;;;;;6.55;3.00;;;20.30;99.90;;;;;;5044827;28;20491;-69
2023/09/29 09:10:38;;;;;;;4.78;3.00;;;20.50;99.90;;;;;;5027941;28;20124;-68
2023/09/29 09:13:07;;;;;;;4.55;2.90;;;20.40;99.90;;;;;;5035033;28;20433;-70
2023/09/29 09:15:33;;;;;;;5.80;2.95;;;20.60;99.90;;;;;;5047075;28;20053;-70
2023/09/29 09:18:00;;;;;;;8.32;3.10;;;20.70;99.90;;;;;;5047815;28;20086;-69
2023/09/29 09:20:26;;;;;;;4.70;2.67;;;20.70;99.90;;;;;;5040970;28;20139;-70
2023/09/29 09:22:59;;;;;;;7.50;2.67;;;20.80;99.90;;;;;;5043384;28;20174;-70
2023/09/29 09:25:42;;;;;;;5.90;2.65;;;20.90;99.90;;;;;;5044135;28;20086;-69
2023/09/29 09:28:17;;;;;;;3.70;2.50;;;21.00;99.90;;;;;;5028552;28;20232;-69
2023/09/29 09:30:44;;;;;;;3.70;2.70;;;21.20;99.90;;;;;;5042042;28;20095;-69
2023/09/29 09:33:20;;;;;;;5.32;2.60;;;21.30;99.90;;;;;;5042203;28;20040;-70
2023/09/29 09:35:47;;;;;;;4.38;2.30;;;21.40;99.90;;;;;;5042019;28;20057;-70
2023/09/29 09:38:13;;;;;;;3.63;2.33;;;21.50;99.90;;;;;;5044210;28;20041;-69
2023/09/29 09:40:39;;;;;;;2.80;2.25;;;21.70;99.90;;;;;;5048067;28;20550;-71
2023/09/29 09:43:09;;;;;;;4.75;2.45;;;21.70;99.90;;;;;;5045130;28;20053;-70
2023/09/29 09:45:44;;;;;;;4.45;2.35;;;21.90;99.90;;;;;;5028047;28;20364;-70
2023/09/29 09:48:15;;;;;;;6.40;2.60;;;21.90;99.90;;;;;;5028660;28;20128;-70
2023/09/29 09:50:45;;;;;;;5.93;2.47;;;21.90;99.90;;;;;;5051382;28;20037;-70
2023/09/29 09:53:13;;;;;;;3.65;2.20;;;21.90;99.90;;;;;;5029246;28;20114;-70
2023/09/29 09:55:44;;;;;;;3.97;2.10;;;22.00;99.90;;;;;;5046002;28;20063;-70
2023/09/29 09:58:16;;;;;;;6.43;2.20;;;21.80;99.90;;;;;;5046281;28;20162;-69
2023/09/29 10:00:46;;;;;;;4.88;2.17;;;21.80;99.90;;;;;;5041664;28;20230;-70
2023/09/29 10:03:13;;;;;;;3.33;2.17;;;21.80;99.90;;;;;;5043544;28;20390;-70
2023/09/29 10:05:44;;;;;;;4.85;2.40;;;21.80;99.90;;;;;;5035976;28;20054;-70
2023/09/29 10:08:10;;;;;;;4.45;2.40;;;21.90;99.90;;;;;;5027271;28;20422;-70
2023/09/29 10:10:43;;;;;;;4.07;2.50;;;21.90;99.90;;;;;;5041885;28;20056;-70
2023/09/29 10:13:12;;;;;;;4.43;2.67;;;21.90;99.90;;;;;;5036276;28;20052;-70
2023/09/29 10:15:41;;;;;;;6.00;2.42;;;21.70;99.90;;;;;;5040711;28;20037;-71
2023/09/29 10:18:20;;;;;;;6.07;2.22;;;21.80;99.90;;;;;;5041589;28;20052;-71
2023/09/29 10:20:50;;;;;;;5.40;2.92;;;21.90;99.90;;;;;;5041997;28;20068;-70
2023/09/29 10:23:16;;;;;;;5.63;2.58;;;21.70;99.90;;;;;;5041121;28;20590;-70
2023/09/29 10:25:54;;;;;;;4.20;1.98;;;21.80;99.90;;;;;;5046694;28;20128;-70
2023/09/29 10:28:32;;;;;;;3.75;2.65;;;21.70;99.90;;;;;;5027126;28;20035;-72
2023/09/29 10:31:09;;;;;;;7.70;2.70;;;21.80;99.90;;;;;;5046890;28;20057;-70
2023/09/29 10:33:54;;;;;;;4.22;2.80;;;21.70;99.90;;;;;;5043250;28;20043;-70
2023/09/29 10:36:22;;;;;;;7.13;2.70;;;21.60;99.90;;;;;;5044001;28;20080;-69
2023/09/29 10:38:48;;;;;;;5.40;2.83;;;21.60;99.90;;;;;;5038758;28;20121;-71
2023/09/29 10:41:15;;;;;;;6.28;2.40;;;21.50;99.90;;;;;;5045499;28;20504;-70
2023/09/29 10:43:48;;;;;;;5.05;2.92;;;21.50;99.90;;;;;;5046403;28;20438;-70
2023/09/29 10:46:16;;;;;;;5.10;2.45;;;21.40;99.90;;;;;;5041860;28;20045;-71
2023/09/29 10:48:49;;;;;;;7.63;2.70;;;21.20;99.90;;;;;;5040537;28;20331;-69
2023/09/29 10:51:22;;;;;;;5.40;2.85;;;21.10;99.90;;;;;;5044441;28;20044;-69
2023/09/29 10:53:48;;;;;;;5.38;2.53;;;21.00;99.90;;;;;;5026102;28;20140;-69
2023/09/29 10:56:19;;;;;;;7.80;2.72;;;21.00;99.90;;;;;;5047276;28;20120;-69
2023/09/29 10:58:44;;;;;;;4.63;2.65;;;20.80;99.90;;;;;;5029640;28;20064;-69
2023/09/29 11:01:11;;;;;;;5.25;2.92;;;20.80;99.90;;;;;;5045085;28;20085;-69
2023/09/29 11:03:37;;;;;;;5.43;2.72;;;20.70;99.90;;;;;;5048831;28;20084;-70
2023/09/29 11:06:08;;;;;;;5.68;2.80;;;20.70;99.90;;;;;;5047161;28;20068;-70
2023/09/29 11:08:38;;;;;;;8.40;2.90;;;20.80;99.90;;;;;;5046468;28;20698;-71
2023/09/29 11:11:06;;;;;;;6.57;2.97;;;20.90;99.90;;;;;;5046684;28;20627;-69
2023/09/29 11:13:32;;;;;;;6.72;2.80;;;20.80;99.90;;;;;;5046049;28;20120;-69
2023/09/29 11:15:59;;;;;;;6.05;3.75;;;20.80;99.90;;;;;;5040389;28;20073;-70
2023/09/29 11:18:30;;;;;;;8.25;3.00;;;20.70;99.90;;;;;;5045148;28;20053;-70
2023/09/29 11:20:58;;;;;;;5.80;3.20;;;20.60;99.90;;;;;;5042801;28;20059;-70
2023/09/29 11:23:24;;;;;;;6.40;3.65;;;20.30;99.90;;;;;;5045429;28;20041;-70
2023/09/29 11:25:54;;;;;;;5.35;3.22;;;20.20;99.90;;;;;;5033271;28;20040;-69
2023/09/29 11:28:20;;;;;;;6.32;3.50;;;20.10;99.90;;;;;;5045296;28;20512;-68
2023/09/29 11:30:46;;;;;;;6.28;3.78;;;20.10;99.90;;;;;;5030592;28;20029;-69
2023/09/29 11:33:13;;;;;;;8.35;3.63;;;20.00;99.90;;;;;;5033375;28;20112;-69
2023/09/29 11:35:42;;;;;;;7.97;3.50;;;20.10;99.90;;;;;;5049511;28;20083;-69
2023/09/29 11:38:07;;;;;;;7.03;3.88;;;20.30;99.90;;;;;;5030079;28;20119;-69
2023/09/29 11:40:33;;;;;;;5.30;3.63;;;20.50;99.90;;;;;;5049608;28;20149;-69
2023/09/29 11:42:59;;;;;;;7.88;3.60;;;20.60;99.90;;;;;;5049092;28;20037;-69
2023/09/29 11:45:25;;;;;;;6.57;2.97;;;20.60;99.90;;;;;;5048116;28;20358;-70
2023/09/29 11:47:51;;;;;;;5.90;3.35;;;20.60;99.90;;;;;;5044796;28;20094;-69
2023/09/29 11:50:18;;;;;;;5.70;3.05;;;20.70;99.90;;;;;;5031645;28;20132;-69
2023/09/29 11:52:43;;;;;;;5.90;3.50;;;20.60;99.90;;;;;;5049471;28;20115;-69
2023/09/29 11:55:13;;;;;;;7.15;3.50;;;20.50;99.90;;;;;;5049526;28;20560;-70
2023/09/29 11:57:42;;;;;;;8.18;4.05;;;20.30;99.90;;;;;;5048248;28;20048;-68
2023/09/29 12:00:11;;;;;;;5.07;3.40;;;19.80;99.90;;;;;;5048467;28;20047;-69
2023/09/29 12:02:39;;;;;;;8.83;4.47;;;19.70;99.90;;;;;;5032568;28;20561;-69
2023/09/29 12:05:06;;;;;;;7.90;4.00;;;19.60;99.90;;;;;;5046727;28;20300;-69
2023/09/29 12:07:32;;;;;;;9.82;4.20;;;19.50;99.90;;;;;;5032375;28;20039;-69
2023/09/29 12:09:58;;;;;;;8.82;4.40;;;19.50;99.90;;;;;;5034331;28;20148;-69
2023/09/29 12:12:25;;;;;;;6.20;3.95;;;19.40;99.90;;;;;;5045483;28;20418;-69
2023/09/29 12:14:52;;;;;;;6.63;4.00;;;19.30;99.90;;;;;;5059316;28;20036;-69
2023/09/29 12:17:18;;;;;;;9.35;3.97;;;19.30;99.90;;;;;;5061837;28;20441;-69
2023/09/29 12:19:44;;;;;;;7.70;4.53;;;19.40;99.90;;;;;;5043563;28;20028;-69
2023/09/29 12:22:09;;;;;;;8.85;4.00;;;19.60;99.90;;;;;;5033668;28;20114;-69
2023/09/29 12:24:37;;;;;;;8.32;4.75;;;19.60;99.90;;;;;;5031600;28;20562;-69
2023/09/29 12:27:03;;;;;;;6.68;4.15;;;19.70;99.90;;;;;;5018291;28;20089;-69
2023/09/29 12:29:29;;;;;;;6.15;4.15;;;19.80;99.90;;;;;;5020825;28;20037;-68
2023/09/29 12:31:55;;;;;;;7.47;4.43;;;19.80;99.90;;;;;;5021321;28;20034;-68
2023/09/29 12:34:20;;;;;;;8.90;4.18;;;19.80;99.90;;;;;;5041429;28;20695;-68
2023/09/29 12:36:46;;;;;;;6.32;3.80;;;19.90;99.90;;;;;;5042487;28;20050;-68
2023/09/29 12:39:12;;;;;;;6.85;3.50;;;20.00;99.90;;;;;;5039732;28;20048;-68
2023/09/29 12:41:38;;;;;;;9.32;4.25;;;20.10;99.90;;;;;;5036918;28;20049;-69